sensor_id;sensor_type;location;lat;lon;timestamp;pressure;altitude;pressure_sealevel;temperature;humidity
18988;BME280;5494;51.796;10.952;2024-03-23T00:53:01;98214.97;;;8.38;100.00
18988;BME280;5494;51.796;10.952;2024-03-23T00:55:27;98212.56;;;8.51;100.00
18988;BME280;5494;51.796;10.952;2024-03-23T00:57:54;98212.16;;;8.43;100.00
18988;BME280;5494;51.796;10.952;2024-03-23T01:00:20;98207.47;;;8.49;100.00
18988;BME280;5494;51.796;10.952;2024-03-23T01:02:47;98204.06;;;8.49;100.00
18988;BME280;5494;51.796;10.952;2024-03-23T01:05:13;98197.00;;;8.51;100.00
18988;BME280;5494;51.796;10.952;2024-03-23T01:07:40;98197.34;;;8.45;100.00
18988;BME280;5494;51.796;10.952;2024-03-23T01:10:09;98194.94;;;8.42;100.00
18988;BME280;5494;51.796;10.952;2024-03-23T01:12:36;98193.16;;;8.58;100.00
18988;BME280;5494;51.796;10.952;2024-03-23T01:15:03;98192.03;;;8.48;100.00
18988;BME280;5494;51.796;10.952;2024-03-23T01:17:29;98198.53;;;8.55;100.00
18988;BME280;5494;51.796;10.952;2024-03-23T01:19:56;98185.75;;;8.52;100.00
18988;BME280;5494;51.796;10.952;2024-03-23T01:22:22;98187.41;;;8.53;100.00
18988;BME280;5494;51.796;10.952;2024-03-23T01:24:49;98172.78;;;8.52;100.00
18988;BME280;5494;51.796;10.952;2024-03-23T01:27:17;98175.31;;;8.38;100.00
18988;BME280;5494;51.796;10.952;2024-03-23T01:29:44;98171.88;;;8.37;100.00
18988;BME280;5494;51.796;10.952;2024-03-23T01:32:10;98174.16;;;8.43;100.00
18988;BME280;5494;51.796;10.952;2024-03-23T01:34:38;98170.31;;;8.35;100.00
18988;BME280;5494;51.796;10.952;2024-03-23T01:37:04;98163.53;;;8.32;100.00
18988;BME280;5494;51.796;10.952;2024-03-23T01:39:31;98158.66;;;8.26;100.00
18988;BME280;5494;51.796;10.952;2024-03-23T01:41:57;98152.00;;;8.22;100.00
18988;BME280;5494;51.796;10.952;2024-03-23T01:44:25;98150.97;;;8.24;100.00
18988;BME280;5494;51.796;10.952;2024-03-23T01:46:51;98153.09;;;8.34;100.00
18988;BME280;5494;51.796;10.952;2024-03-23T01:49:18;98149.06;;;8.28;100.00
18988;BME280;5494;51.796;10.952;2024-03-23T01:51:45;98131.66;;;8.30;100.00
18988;BME280;5494;51.796;10.952;2024-03-23T01:54:12;98128.97;;;8.33;100.00
18988;BME280;5494;51.796;10.952;2024-03-23T01:56:39;98124.19;;;8.41;100.00
18988;BME280;5494;51.796;10.952;2024-03-23T01:59:06;98127.63;;;8.42;100.00
18988;BME280;5494;51.796;10.952;2024-03-23T02:01:35;98120.66;;;8.26;100.00
18988;BME280;5494;51.796;10.952;2024-03-23T02:04:02;98115.91;;;8.19;100.00
18988;BME280;5494;51.796;10.952;2024-03-23T02:06:29;98115.75;;;8.22;100.00
18988;BME280;5494;51.796;10.952;2024-03-23T02:08:56;98120.50;;;8.14;100.00
18988;BME280;5494;51.796;10.952;2024-03-23T02:11:22;98108.47;;;8.13;100.00
18988;BME280;5494;51.796;10.952;2024-03-23T02:13:49;98102.31;;;8.15;100.00
18988;BME280;5494;51.796;10.952;2024-03-23T02:16:15;98105.88;;;8.13;100.00
18988;BME280;5494;51.796;10.952;2024-03-23T02:18:44;98102.47;;;7.97;100.00
18988;BME280;5494;51.796;10.952;2024-03-23T02:21:10;98109.16;;;8.01;100.00
18988;BME280;5494;51.796;10.952;2024-03-23T02:23:38;98101.13;;;7.89;100.00
18988;BME280;5494;51.796;10.952;2024-03-23T02:26:04;98110.16;;;7.98;100.00
18988;BME280;5494;51.796;10.952;2024-03-23T02:28:31;98106.78;;;7.96;100.00
18988;BME280;5494;51.796;10.952;2024-03-23T02:30:57;98095.19;;;8.03;100.00
18988;BME280;5494;51.796;10.952;2024-03-23T02:33:26;98095.88;;;8.07;100.00
18988;BME280;5494;51.796;10.952;2024-03-23T02:35:56;98090.69;;;8.07;100.00
18988;BME280;5494;51.796;10.952;2024-03-23T02:38:23;98081.41;;;8.03;100.00
18988;BME280;5494;51.796;10.952;2024-03-23T02:40:51;98089.38;;;8.00;100.00
18988;BME280;5494;51.796;10.952;2024-03-23T02:43:18;98089.94;;;8.05;100.00
18988;BME280;5494;51.796;10.952;2024-03-23T02:45:44;98089.44;;;7.98;100.00
18988;BME280;5494;51.796;10.952;2024-03-23T02:48:11;98087.75;;;7.97;100.00
18988;BME280;5494;51.796;10.952;2024-03-23T02:50:37;98077.41;;;7.97;100.00
18988;BME280;5494;51.796;10.952;2024-03-23T02:53:04;98077.25;;;7.84;100.00
18988;BME280;5494;51.796;10.952;2024-03-23T02:55:31;98081.78;;;7.81;100.00
18988;BME280;5494;51.796;10.952;2024-03-23T02:57:59;98078.94;;;7.85;100.00
18988;BME280;5494;51.796;10.952;2024-03-23T03:00:27;98067.25;;;7.78;100.00
18988;BME280;5494;51.796;10.952;2024-03-23T03:02:57;98072.16;;;7.83;100.00
18988;BME280;5494;51.796;10.952;2024-03-23T03:05:23;98066.34;;;7.79;100.00
18988;BME280;5494;51.796;10.952;2024-03-23T03:07:50;98044.03;;;7.61;100.00
18988;BME280;5494;51.796;10.952;2024-03-23T03:10:17;98031.44;;;7.39;100.00
18988;BME280;5494;51.796;10.952;2024-03-23T03:12:44;98046.00;;;7.40;100.00
18988;BME280;5494;51.796;10.952;2024-03-23T03:15:11;98046.94;;;7.55;100.00
18988;BME280;5494;51.796;10.952;2024-03-23T03:17:38;98042.28;;;7.46;100.00
18988;BME280;5494;51.796;10.952;2024-03-23T03:20:05;98040.03;;;7.56;100.00
18988;BME280;5494;51.796;10.952;2024-03-23T03:22:33;98046.44;;;7.48;100.00
18988;BME280;5494;51.796;10.952;2024-03-23T03:24:59;98051.09;;;7.42;100.00
18988;BME280;5494;51.796;10.952;2024-03-23T03:27:28;98046.09;;;7.39;100.00
18988;BME280;5494;51.796;10.952;2024-03-23T03:29:54;98041.56;;;7.27;100.00
18988;BME280;5494;51.796;10.952;2024-03-23T03:32:23;98034.31;;;7.18;100.00
18988;BME280;5494;51.796;10.952;2024-03-23T03:34:50;98036.78;;;7.19;100.00
18988;BME280;5494;51.796;10.952;2024-03-23T03:37:17;98033.22;;;7.22;100.00
18988;BME280;5494;51.796;10.952;2024-03-23T03:39:43;98018.81;;;7.18;100.00
18988;BME280;5494;51.796;10.952;2024-03-23T03:42:10;98018.03;;;7.16;100.00
18988;BME280;5494;51.796;10.952;2024-03-23T03:44:37;98014.53;;;7.17;100.00
18988;BME280;5494;51.796;10.952;2024-03-23T03:47:06;98005.19;;;7.14;100.00
18988;BME280;5494;51.796;10.952;2024-03-23T03:49:33;98011.66;;;7.05;100.00
18988;BME280;5494;51.796;10.952;2024-03-23T03:52:01;98010.13;;;7.19;100.00
18988;BME280;5494;51.796;10.952;2024-03-23T03:54:28;97997.69;;;7.09;100.00
18988;BME280;5494;51.796;10.952;2024-03-23T03:56:55;97991.56;;;6.95;100.00
18988;BME280;5494;51.796;10.952;2024-03-23T03:59:21;97987.75;;;7.02;100.00
18988;BME280;5494;51.796;10.952;2024-03-23T04:01:48;97984.16;;;6.71;100.00
18988;BME280;5494;51.796;10.952;2024-03-23T04:04:14;97990.47;;;6.66;100.00
18988;BME280;5494;51.796;10.952;2024-03-23T04:06:44;97978.84;;;6.75;100.00
18988;BME280;5494;51.796;10.952;2024-03-23T04:09:10;97979.50;;;6.78;100.00
18988;BME280;5494;51.796;10.952;2024-03-23T04:11:37;97985.13;;;6.86;100.00
18988;BME280;5494;51.796;10.952;2024-03-23T04:14:03;97975.69;;;6.85;100.00
18988;BME280;5494;51.796;10.952;2024-03-23T04:16:35;97972.53;;;6.80;100.00
18988;BME280;5494;51.796;10.952;2024-03-23T04:19:01;97967.03;;;6.70;100.00
18988;BME280;5494;51.796;10.952;2024-03-23T04:21:28;97957.44;;;6.72;100.00
18988;BME280;5494;51.796;10.952;2024-03-23T04:23:56;97958.53;;;6.51;100.00
18988;BME280;5494;51.796;10.952;2024-03-23T04:26:23;97956.94;;;6.49;100.00
18988;BME280;5494;51.796;10.952;2024-03-23T04:28:49;97946.88;;;6.27;100.00
18988;BME280;5494;51.796;10.952;2024-03-23T04:31:16;97951.03;;;6.29;100.00
18988;BME280;5494;51.796;10.952;2024-03-23T04:33:43;97948.75;;;6.23;100.00
18988;BME280;5494;51.796;10.952;2024-03-23T04:36:09;97951.66;;;6.17;100.00
18988;BME280;5494;51.796;10.952;2024-03-23T04:38:37;97943.44;;;6.09;100.00
18988;BME280;5494;51.796;10.952;2024-03-23T04:41:05;97932.16;;;5.95;100.00
18988;BME280;5494;51.796;10.952;2024-03-23T04:43:32;97944.06;;;6.14;100.00
18988;BME280;5494;51.796;10.952;2024-03-23T04:46:00;97942.59;;;6.09;100.00
18988;BME280;5494;51.796;10.952;2024-03-23T04:48:27;97936.63;;;6.08;100.00
18988;BME280;5494;51.796;10.952;2024-03-23T04:50:58;97938.75;;;6.00;100.00
18988;BME280;5494;51.796;10.952;2024-03-23T04:53:25;97933.13;;;6.09;100.00
18988;BME280;5494;51.796;10.952;2024-03-23T04:55:55;97931.78;;;6.19;100.00
18988;BME280;5494;51.796;10.952;2024-03-23T04:58:23;97932.16;;;6.29;100.00
18988;BME280;5494;51.796;10.952;2024-03-23T05:00:53;97923.94;;;6.38;100.00
18988;BME280;5494;51.796;10.952;2024-03-23T05:03:21;97922.94;;;6.23;100.00
18988;BME280;5494;51.796;10.952;2024-03-23T05:05:47;97916.44;;;6.16;100.00
18988;BME280;5494;51.796;10.952;2024-03-23T05:08:15;97913.47;;;6.24;100.00
18988;BME280;5494;51.796;10.952;2024-03-23T05:10:42;97915.53;;;6.17;100.00
18988;BME280;5494;51.796;10.952;2024-03-23T05:13:09;97916.00;;;6.08;100.00
18988;BME280;5494;51.796;10.952;2024-03-23T05:15:36;97924.72;;;6.06;100.00
18988;BME280;5494;51.796;10.952;2024-03-23T05:18:05;97920.25;;;5.92;100.00
18988;BME280;5494;51.796;10.952;2024-03-23T05:20:31;97914.44;;;5.87;100.00
18988;BME280;5494;51.796;10.952;2024-03-23T05:22:58;97916.75;;;5.74;100.00
18988;BME280;5494;51.796;10.952;2024-03-23T05:25:24;97909.44;;;5.67;100.00
18988;BME280;5494;51.796;10.952;2024-03-23T05:27:51;97906.22;;;5.62;100.00
18988;BME280;5494;51.796;10.952;2024-03-23T05:30:17;97915.31;;;5.69;100.00
18988;BME280;5494;51.796;10.952;2024-03-23T05:32:46;97913.03;;;5.63;100.00
18988;BME280;5494;51.796;10.952;2024-03-23T05:35:12;97912.44;;;5.58;100.00
18988;BME280;5494;51.796;10.952;2024-03-23T05:37:39;97909.56;;;5.64;100.00
18988;BME280;5494;51.796;10.952;2024-03-23T05:40:06;97918.06;;;5.66;100.00
18988;BME280;5494;51.796;10.952;2024-03-23T05:42:34;97911.53;;;5.59;100.00
18988;BME280;5494;51.796;10.952;2024-03-23T05:45:00;97914.16;;;5.57;100.00
18988;BME280;5494;51.796;10.952;2024-03-23T05:47:27;97906.66;;;5.52;100.00
18988;BME280;5494;51.796;10.952;2024-03-23T05:49:54;97911.66;;;5.55;100.00
18988;BME280;5494;51.796;10.952;2024-03-23T05:52:21;97928.19;;;5.51;100.00
18988;BME280;5494;51.796;10.952;2024-03-23T05:54:47;97913.75;;;5.47;100.00
18988;BME280;5494;51.796;10.952;2024-03-23T05:57:14;97906.88;;;5.48;100.00
18988;BME280;5494;51.796;10.952;2024-03-23T05:59:40;97903.63;;;5.44;100.00
18988;BME280;5494;51.796;10.952;2024-03-23T06:02:08;97906.31;;;5.41;100.00
18988;BME280;5494;51.796;10.952;2024-03-23T06:04:36;97895.13;;;5.42;100.00
18988;BME280;5494;51.796;10.952;2024-03-23T06:07:05;97903.47;;;5.47;100.00
18988;BME280;5494;51.796;10.952;2024-03-23T06:09:32;97910.94;;;5.35;100.00
18988;BME280;5494;51.796;10.952;2024-03-23T06:11:59;97915.88;;;5.39;100.00
18988;BME280;5494;51.796;10.952;2024-03-23T06:14:25;97924.59;;;5.37;100.00
18988;BME280;5494;51.796;10.952;2024-03-23T06:16:52;97926.91;;;5.24;100.00
18988;BME280;5494;51.796;10.952;2024-03-23T06:19:18;97932.75;;;5.28;100.00
18988;BME280;5494;51.796;10.952;2024-03-23T06:21:45;97931.63;;;5.33;100.00
18988;BME280;5494;51.796;10.952;2024-03-23T06:24:13;97930.31;;;5.25;100.00
18988;BME280;5494;51.796;10.952;2024-03-23T06:26:40;97935.81;;;5.17;100.00
18988;BME280;5494;51.796;10.952;2024-03-23T06:29:06;97937.41;;;5.01;100.00
18988;BME280;5494;51.796;10.952;2024-03-23T06:31:34;97928.72;;;5.03;100.00
18988;BME280;5494;51.796;10.952;2024-03-23T06:34:00;97935.41;;;5.07;100.00
18988;BME280;5494;51.796;10.952;2024-03-23T06:36:27;97939.78;;;5.05;100.00
18988;BME280;5494;51.796;10.952;2024-03-23T06:38:53;97938.25;;;5.01;100.00
18988;BME280;5494;51.796;10.952;2024-03-23T06:41:22;97933.88;;;5.03;100.00
18988;BME280;5494;51.796;10.952;2024-03-23T06:43:48;97934.28;;;4.94;100.00
18988;BME280;5494;51.796;10.952;2024-03-23T06:46:15;97931.81;;;4.91;100.00
18988;BME280;5494;51.796;10.952;2024-03-23T06:48:41;97933.31;;;4.97;100.00
18988;BME280;5494;51.796;10.952;2024-03-23T06:51:09;97934.34;;;4.93;100.00
18988;BME280;5494;51.796;10.952;2024-03-23T06:53:35;97922.03;;;4.99;100.00
18988;BME280;5494;51.796;10.952;2024-03-23T06:56:02;97931.31;;;5.03;100.00
18988;BME280;5494;51.796;10.952;2024-03-23T06:58:30;97932.97;;;5.04;100.00
18988;BME280;5494;51.796;10.952;2024-03-23T07:00:57;97934.16;;;4.97;100.00
18988;BME280;5494;51.796;10.952;2024-03-23T07:03:23;97928.84;;;5.00;100.00
18988;BME280;5494;51.796;10.952;2024-03-23T07:05:51;97921.19;;;4.99;100.00
18988;BME280;5494;51.796;10.952;2024-03-23T07:08:18;97920.28;;;5.00;100.00
18988;BME280;5494;51.796;10.952;2024-03-23T07:10:48;97921.63;;;5.08;100.00
18988;BME280;5494;51.796;10.952;2024-03-23T07:13:14;97915.06;;;5.01;100.00
18988;BME280;5494;51.796;10.952;2024-03-23T07:15:42;97923.22;;;5.11;100.00
18988;BME280;5494;51.796;10.952;2024-03-23T07:18:08;97922.22;;;5.13;100.00
18988;BME280;5494;51.796;10.952;2024-03-23T07:20:36;97919.38;;;5.20;100.00
18988;BME280;5494;51.796;10.952;2024-03-23T07:23:02;97922.50;;;5.26;100.00
18988;BME280;5494;51.796;10.952;2024-03-23T07:25:29;97917.28;;;5.28;100.00
18988;BME280;5494;51.796;10.952;2024-03-23T07:27:55;97920.16;;;5.22;100.00
18988;BME280;5494;51.796;10.952;2024-03-23T07:30:22;97920.63;;;5.30;100.00
18988;BME280;5494;51.796;10.952;2024-03-23T07:32:50;97917.84;;;5.15;100.00
18988;BME280;5494;51.796;10.952;2024-03-23T07:35:17;97917.16;;;5.12;100.00
18988;BME280;5494;51.796;10.952;2024-03-23T07:37:43;97917.78;;;4.98;100.00
18988;BME280;5494;51.796;10.952;2024-03-23T07:40:11;97925.88;;;4.91;100.00
18988;BME280;5494;51.796;10.952;2024-03-23T07:42:38;97925.72;;;4.94;100.00
18988;BME280;5494;51.796;10.952;2024-03-23T07:45:06;97934.34;;;4.93;100.00
18988;BME280;5494;51.796;10.952;2024-03-23T07:47:33;97928.84;;;5.00;100.00
18988;BME280;5494;51.796;10.952;2024-03-23T07:50:02;97928.84;;;4.82;100.00
18988;BME280;5494;51.796;10.952;2024-03-23T07:52:29;97926.34;;;4.80;100.00
18988;BME280;5494;51.796;10.952;2024-03-23T07:54:55;97930.25;;;4.89;100.00
18988;BME280;5494;51.796;10.952;2024-03-23T07:57:22;97934.34;;;4.93;100.00
18988;BME280;5494;51.796;10.952;2024-03-23T07:59:48;97931.09;;;4.89;100.00
18988;BME280;5494;51.796;10.952;2024-03-23T08:02:15;97926.63;;;4.93;100.00
18988;BME280;5494;51.796;10.952;2024-03-23T08:04:41;97933.72;;;4.88;100.00
18988;BME280;5494;51.796;10.952;2024-03-23T08:07:09;97944.59;;;4.94;100.00
18988;BME280;5494;51.796;10.952;2024-03-23T08:09:35;97953.03;;;4.98;100.00
18988;BME280;5494;51.796;10.952;2024-03-23T08:12:03;97949.78;;;4.93;100.00
18988;BME280;5494;51.796;10.952;2024-03-23T08:14:29;97954.03;;;4.94;100.00
18988;BME280;5494;51.796;10.952;2024-03-23T08:16:57;97957.66;;;4.90;100.00
18988;BME280;5494;51.796;10.952;2024-03-23T08:19:23;97967.53;;;4.80;100.00
18988;BME280;5494;51.796;10.952;2024-03-23T08:21:50;97963.28;;;4.79;100.00
18988;BME280;5494;51.796;10.952;2024-03-23T08:24:18;97965.56;;;4.85;100.00
18988;BME280;5494;51.796;10.952;2024-03-23T08:26:47;97986.38;;;4.81;100.00
18988;BME280;5494;51.796;10.952;2024-03-23T08:29:13;97985.75;;;4.75;100.00
18988;BME280;5494;51.796;10.952;2024-03-23T08:31:40;97982.84;;;4.83;100.00
18988;BME280;5494;51.796;10.952;2024-03-23T08:34:06;97994.31;;;4.76;100.00
18988;BME280;5494;51.796;10.952;2024-03-23T08:36:33;97987.09;;;4.64;100.00
18988;BME280;5494;51.796;10.952;2024-03-23T08:38:59;97987.94;;;4.64;100.00
18988;BME280;5494;51.796;10.952;2024-03-23T08:41:27;97990.34;;;4.69;100.00
18988;BME280;5494;51.796;10.952;2024-03-23T08:43:55;97985.00;;;4.53;100.00
18988;BME280;5494;51.796;10.952;2024-03-23T08:46:22;97976.44;;;4.53;100.00
18988;BME280;5494;51.796;10.952;2024-03-23T08:48:48;97988.72;;;4.46;100.00
18988;BME280;5494;51.796;10.952;2024-03-23T08:51:16;97981.78;;;4.48;100.00
18988;BME280;5494;51.796;10.952;2024-03-23T08:53:43;97978.19;;;4.52;100.00
18988;BME280;5494;51.796;10.952;2024-03-23T08:56:10;97983.50;;;4.68;100.00
18988;BME280;5494;51.796;10.952;2024-03-23T08:58:39;97976.97;;;4.80;100.00
18988;BME280;5494;51.796;10.952;2024-03-23T09:01:09;97989.88;;;4.98;100.00
18988;BME280;5494;51.796;10.952;2024-03-23T09:03:35;97986.22;;;5.04;100.00
18988;BME280;5494;51.796;10.952;2024-03-23T09:06:07;97992.34;;;5.20;100.00
18988;BME280;5494;51.796;10.952;2024-03-23T09:08:34;97995.75;;;5.39;100.00
18988;BME280;5494;51.796;10.952;2024-03-23T09:11:04;97993.59;;;5.49;100.00
18988;BME280;5494;51.796;10.952;2024-03-23T09:13:32;97990.03;;;5.51;100.00
18988;BME280;5494;51.796;10.952;2024-03-23T09:16:01;97992.34;;;5.58;100.00
18988;BME280;5494;51.796;10.952;2024-03-23T09:18:27;97985.38;;;5.60;100.00
18988;BME280;5494;51.796;10.952;2024-03-23T09:20:54;98002.22;;;5.67;100.00
18988;BME280;5494;51.796;10.952;2024-03-23T09:23:20;97993.69;;;5.83;100.00
18988;BME280;5494;51.796;10.952;2024-03-23T09:25:47;97994.66;;;6.00;100.00
18988;BME280;5494;51.796;10.952;2024-03-23T09:28:13;97995.44;;;6.19;100.00
18988;BME280;5494;51.796;10.952;2024-03-23T09:30:41;97995.22;;;6.41;100.00
18988;BME280;5494;51.796;10.952;2024-03-23T09:33:10;97996.56;;;6.30;100.00
18988;BME280;5494;51.796;10.952;2024-03-23T09:35:38;97998.94;;;6.35;100.00
18988;BME280;5494;51.796;10.952;2024-03-23T09:38:04;97994.78;;;6.50;100.00
18988;BME280;5494;51.796;10.952;2024-03-23T09:40:33;97997.72;;;6.42;100.00
18988;BME280;5494;51.796;10.952;2024-03-23T09:43:00;98008.19;;;6.39;100.00
18988;BME280;5494;51.796;10.952;2024-03-23T09:45:28;98013.34;;;6.39;100.00
18988;BME280;5494;51.796;10.952;2024-03-23T09:47:55;98026.31;;;6.38;100.00
18988;BME280;5494;51.796;10.952;2024-03-23T09:50:24;98020.19;;;6.40;100.00
18988;BME280;5494;51.796;10.952;2024-03-23T09:52:50;98029.69;;;6.57;100.00
18988;BME280;5494;51.796;10.952;2024-03-23T09:55:17;98036.50;;;6.75;100.00
18988;BME280;5494;51.796;10.952;2024-03-23T09:57:43;98048.19;;;6.65;100.00
18988;BME280;5494;51.796;10.952;2024-03-23T10:00:12;98047.53;;;6.61;100.00
18988;BME280;5494;51.796;10.952;2024-03-23T10:02:38;98050.56;;;6.35;100.00
18988;BME280;5494;51.796;10.952;2024-03-23T10:05:20;98053.88;;;6.20;100.00
18988;BME280;5494;51.796;10.952;2024-03-23T10:07:49;98052.13;;;6.20;100.00
18988;BME280;5494;51.796;10.952;2024-03-23T10:10:17;98058.31;;;6.16;100.00
18988;BME280;5494;51.796;10.952;2024-03-23T10:12:47;98052.78;;;6.07;100.00
18988;BME280;5494;51.796;10.952;2024-03-23T10:15:19;98044.16;;;5.89;100.00
18988;BME280;5494;51.796;10.952;2024-03-23T10:17:46;98039.97;;;6.05;100.00
18988;BME280;5494;51.796;10.952;2024-03-23T10:20:19;98038.28;;;6.04;100.00
18988;BME280;5494;51.796;10.952;2024-03-23T10:22:46;98038.19;;;6.42;100.00
18988;BME280;5494;51.796;10.952;2024-03-23T10:25:15;98035.28;;;6.82;100.00
18988;BME280;5494;51.796;10.952;2024-03-23T10:27:41;98040.06;;;7.23;100.00
18988;BME280;5494;51.796;10.952;2024-03-23T10:30:11;98037.47;;;7.87;100.00
18988;BME280;5494;51.796;10.952;2024-03-23T10:32:38;98026.03;;;8.66;100.00
18988;BME280;5494;51.796;10.952;2024-03-23T10:35:16;98023.03;;;9.02;100.00
18988;BME280;5494;51.796;10.952;2024-03-23T10:37:45;98026.44;;;9.60;100.00
18988;BME280;5494;51.796;10.952;2024-03-23T10:40:15;98017.41;;;10.20;100.00
18988;BME280;5494;51.796;10.952;2024-03-23T10:42:42;98012.41;;;10.82;89.98
18988;BME280;5494;51.796;10.952;2024-03-23T10:45:09;98013.53;;;10.65;79.32
18988;BME280;5494;51.796;10.952;2024-03-23T10:47:37;97999.94;;;10.75;78.15
18988;BME280;5494;51.796;10.952;2024-03-23T10:50:05;98011.06;;;10.89;79.32
18988;BME280;5494;51.796;10.952;2024-03-23T10:52:32;98016.56;;;11.23;76.73
18988;BME280;5494;51.796;10.952;2024-03-23T10:55:01;98013.03;;;11.24;75.20
18988;BME280;5494;51.796;10.952;2024-03-23T10:57:37;98017.63;;;11.33;76.93
18988;BME280;5494;51.796;10.952;2024-03-23T11:00:09;98007.75;;;11.62;75.73
18988;BME280;5494;51.796;10.952;2024-03-23T11:02:36;98006.34;;;11.45;71.05
18988;BME280;5494;51.796;10.952;2024-03-23T11:05:29;98005.25;;;10.98;70.99
18988;BME280;5494;51.796;10.952;2024-03-23T11:07:55;98005.44;;;11.08;74.22
18988;BME280;5494;51.796;10.952;2024-03-23T11:10:27;98012.94;;;11.25;69.84
18988;BME280;5494;51.796;10.952;2024-03-23T11:12:56;98017.59;;;11.20;69.41
18988;BME280;5494;51.796;10.952;2024-03-23T11:15:23;98014.47;;;11.28;67.31
18988;BME280;5494;51.796;10.952;2024-03-23T11:18:04;98006.59;;;10.91;67.37
18988;BME280;5494;51.796;10.952;2024-03-23T11:20:32;98007.63;;;10.63;67.72
18988;BME280;5494;51.796;10.952;2024-03-23T11:22:59;98005.03;;;10.76;68.94
18988;BME280;5494;51.796;10.952;2024-03-23T11:25:28;98013.03;;;10.73;71.40
18988;BME280;5494;51.796;10.952;2024-03-23T11:27:58;98038.66;;;9.99;79.63
18988;BME280;5494;51.796;10.952;2024-03-23T11:30:27;98033.88;;;9.23;90.50
18988;BME280;5494;51.796;10.952;2024-03-23T11:32:56;98043.56;;;8.77;97.27
18988;BME280;5494;51.796;10.952;2024-03-23T11:35:27;98062.22;;;8.07;100.00
18988;BME280;5494;51.796;10.952;2024-03-23T11:38:05;98066.09;;;7.35;100.00
18988;BME280;5494;51.796;10.952;2024-03-23T11:40:34;98033.53;;;6.83;100.00
18988;BME280;5494;51.796;10.952;2024-03-23T11:43:04;98021.47;;;6.66;100.00
18988;BME280;5494;51.796;10.952;2024-03-23T11:45:35;98002.69;;;6.80;100.00
18988;BME280;5494;51.796;10.952;2024-03-23T11:48:04;98005.72;;;6.88;100.00
18988;BME280;5494;51.796;10.952;2024-03-23T11:50:31;98011.06;;;7.00;100.00
18988;BME280;5494;51.796;10.952;2024-03-23T11:53:13;98006.34;;;7.08;100.00
18988;BME280;5494;51.796;10.952;2024-03-23T11:55:43;98011.91;;;7.01;100.00
18988;BME280;5494;51.796;10.952;2024-03-23T11:58:12;98024.16;;;6.97;100.00
18988;BME280;5494;51.796;10.952;2024-03-23T12:00:40;98020.06;;;6.93;100.00
18988;BME280;5494;51.796;10.952;2024-03-23T12:03:07;98008.69;;;6.97;100.00
18988;BME280;5494;51.796;10.952;2024-03-23T12:05:34;98011.25;;;6.97;100.00
18988;BME280;5494;51.796;10.952;2024-03-23T12:08:17;98008.63;;;7.15;100.00
18988;BME280;5494;51.796;10.952;2024-03-23T12:10:49;98014.66;;;7.31;100.00
18988;BME280;5494;51.796;10.952;2024-03-23T12:13:19;98000.16;;;7.44;100.00
18988;BME280;5494;51.796;10.952;2024-03-23T12:15:49;98002.00;;;7.73;100.00
18988;BME280;5494;51.796;10.952;2024-03-23T12:18:15;97988.38;;;7.85;100.00
18988;BME280;5494;51.796;10.952;2024-03-23T12:20:43;97983.00;;;7.88;100.00
18988;BME280;5494;51.796;10.952;2024-03-23T12:23:11;97978.94;;;8.00;100.00
18988;BME280;5494;51.796;10.952;2024-03-23T12:25:41;97976.00;;;8.06;100.00
18988;BME280;5494;51.796;10.952;2024-03-23T12:28:07;97983.25;;;8.15;100.00
18988;BME280;5494;51.796;10.952;2024-03-23T12:30:39;97990.28;;;8.27;100.00
18988;BME280;5494;51.796;10.952;2024-03-23T12:33:06;97985.47;;;8.51;100.00
18988;BME280;5494;51.796;10.952;2024-03-23T12:35:33;97985.88;;;8.74;100.00
18988;BME280;5494;51.796;10.952;2024-03-23T12:37:59;97989.41;;;8.87;100.00
18988;BME280;5494;51.796;10.952;2024-03-23T12:40:26;97992.22;;;9.12;100.00
18988;BME280;5494;51.796;10.952;2024-03-23T12:42:53;98009.06;;;9.19;96.28
18988;BME280;5494;51.796;10.952;2024-03-23T12:45:20;98019.53;;;9.03;98.44
18988;BME280;5494;51.796;10.952;2024-03-23T12:47:48;98037.09;;;8.54;100.00
18988;BME280;5494;51.796;10.952;2024-03-23T12:50:15;98036.09;;;8.11;100.00
18988;BME280;5494;51.796;10.952;2024-03-23T12:52:42;98054.19;;;7.96;100.00
18988;BME280;5494;51.796;10.952;2024-03-23T12:55:09;98036.69;;;7.69;100.00
18988;BME280;5494;51.796;10.952;2024-03-23T12:57:35;98032.19;;;7.57;100.00
18988;BME280;5494;51.796;10.952;2024-03-23T13:00:04;98023.34;;;7.77;100.00
18988;BME280;5494;51.796;10.952;2024-03-23T13:02:30;98002.78;;;8.05;100.00
18988;BME280;5494;51.796;10.952;2024-03-23T13:04:58;97998.78;;;8.15;100.00
18988;BME280;5494;51.796;10.952;2024-03-23T13:07:25;97998.91;;;8.28;100.00
18988;BME280;5494;51.796;10.952;2024-03-23T13:09:52;98005.59;;;8.32;100.00
18988;BME280;5494;51.796;10.952;2024-03-23T13:12:19;98012.28;;;8.20;97.73
18988;BME280;5494;51.796;10.952;2024-03-23T13:14:46;98011.72;;;8.45;96.15
18988;BME280;5494;51.796;10.952;2024-03-23T13:17:13;98005.34;;;8.51;94.69
18988;BME280;5494;51.796;10.952;2024-03-23T13:19:41;98005.50;;;8.63;93.61
18988;BME280;5494;51.796;10.952;2024-03-23T13:22:08;98013.13;;;8.51;91.16
18988;BME280;5494;51.796;10.952;2024-03-23T13:24:38;98013.63;;;8.57;92.48
18988;BME280;5494;51.796;10.952;2024-03-23T13:27:05;98018.66;;;8.75;93.62
18988;BME280;5494;51.796;10.952;2024-03-23T13:29:34;98012.72;;;8.87;92.54
18988;BME280;5494;51.796;10.952;2024-03-23T13:32:00;98017.19;;;8.99;90.24
18988;BME280;5494;51.796;10.952;2024-03-23T13:34:27;98019.41;;;8.91;89.89
18988;BME280;5494;51.796;10.952;2024-03-23T13:36:55;98025.06;;;8.83;91.40
18988;BME280;5494;51.796;10.952;2024-03-23T13:39:25;98037.28;;;8.51;93.64
18988;BME280;5494;51.796;10.952;2024-03-23T13:41:53;98051.22;;;7.87;100.00
18988;BME280;5494;51.796;10.952;2024-03-23T13:44:21;98064.16;;;7.23;100.00
18988;BME280;5494;51.796;10.952;2024-03-23T13:46:47;98060.72;;;6.72;100.00
18988;BME280;5494;51.796;10.952;2024-03-23T13:49:25;98057.16;;;6.41;100.00
18988;BME280;5494;51.796;10.952;2024-03-23T13:51:53;98035.75;;;6.39;100.00
18988;BME280;5494;51.796;10.952;2024-03-23T13:54:20;98042.66;;;6.38;100.00